createdAt,value
2023-03-08T00:02:19.095Z,6.15
2023-03-08T00:04:45.893Z,5.50
2023-03-08T00:07:12.719Z,6.53
2023-03-08T00:09:39.589Z,6.13
2023-03-08T00:12:07.626Z,6.95
2023-03-08T00:14:34.412Z,6.47
2023-03-08T00:17:02.551Z,5.78
2023-03-08T00:19:29.505Z,6.30
2023-03-08T00:21:56.432Z,6.22
2023-03-08T00:24:23.265Z,6.65
2023-03-08T00:26:50.079Z,6.40
2023-03-08T00:29:16.929Z,6.30
2023-03-08T00:31:43.840Z,6.03
2023-03-08T00:34:10.751Z,6.20
2023-03-08T00:36:37.599Z,5.78
2023-03-08T00:39:04.585Z,6.32
2023-03-08T00:41:31.601Z,5.38
2023-03-08T00:43:58.384Z,5.25
2023-03-08T00:46:26.149Z,5.38
2023-03-08T00:48:53.023Z,5.80
2023-03-08T00:51:21.167Z,5.20
2023-03-08T00:53:48.748Z,5.30
2023-03-08T00:56:15.571Z,5.05
2023-03-08T00:58:42.441Z,5.30
2023-03-08T01:01:13.689Z,4.95
2023-03-08T01:03:40.652Z,5.07
2023-03-08T01:06:09.992Z,5.07
2023-03-08T01:08:37.091Z,4.95
2023-03-08T01:11:04.024Z,5.15
2023-03-08T01:13:34.772Z,5.22
2023-03-08T01:16:02.461Z,4.82
2023-03-08T01:18:29.446Z,4.22
2023-03-08T01:21:01.348Z,5.10
2023-03-08T01:23:28.912Z,5.38
2023-03-08T01:26:05.094Z,5.10
2023-03-08T01:28:32.787Z,4.95
2023-03-08T01:31:08.618Z,4.70
2023-03-08T01:33:35.757Z,4.78
2023-03-08T01:36:08.183Z,5.40
2023-03-08T01:38:35.717Z,5.03
2023-03-08T01:41:04.191Z,5.53
2023-03-08T01:43:37.465Z,4.70
2023-03-08T01:46:13.002Z,5.07
2023-03-08T01:49:05.636Z,5.20
2023-03-08T01:56:39.169Z,5.43
2023-03-08T01:59:07.307Z,6.13
2023-03-08T02:01:35.269Z,7.03
2023-03-08T02:04:03.099Z,7.03
2023-03-08T02:06:30.239Z,8.05
2023-03-08T02:08:57.560Z,7.70
2023-03-08T02:11:25.367Z,6.75
2023-03-08T02:13:54.315Z,8.35
2023-03-08T02:16:21.775Z,9.30
2023-03-08T02:19:00.964Z,8.93
2023-03-08T02:21:29.544Z,9.30
2023-03-08T02:24:02.637Z,8.98
2023-03-08T02:26:29.711Z,10.20
2023-03-08T02:28:56.539Z,8.48
2023-03-08T02:31:23.325Z,8.93
2023-03-08T02:33:50.092Z,9.48
2023-03-08T02:36:16.898Z,9.45
2023-03-08T02:38:43.748Z,10.70
2023-03-08T02:41:10.571Z,9.63
2023-03-08T02:43:37.374Z,10.05
2023-03-08T02:46:04.207Z,9.68
2023-03-08T02:48:31.051Z,9.00
2023-03-08T02:50:57.829Z,9.98
2023-03-08T02:53:24.756Z,8.70
2023-03-08T02:55:51.501Z,9.75
2023-03-08T02:58:18.306Z,10.30
2023-03-08T03:00:45.139Z,9.68
2023-03-08T03:03:12.056Z,9.45
2023-03-08T03:05:45.632Z,10.85
2023-03-08T03:08:12.865Z,9.38
2023-03-08T03:13:06.786Z,6.30
2023-03-08T03:15:34.402Z,8.60
2023-03-08T03:18:01.324Z,8.10
2023-03-08T03:20:28.275Z,7.97
2023-03-08T03:22:55.047Z,7.90
2023-03-08T03:25:21.850Z,9.32
2023-03-08T03:27:48.638Z,8.93
2023-03-08T03:30:15.604Z,9.98
2023-03-08T03:32:42.521Z,9.38
2023-03-08T03:35:09.772Z,9.63
2023-03-08T03:37:36.820Z,9.73
2023-03-08T03:40:05.065Z,9.48
2023-03-08T03:42:31.887Z,10.13
2023-03-08T03:44:58.915Z,9.55
2023-03-08T03:47:25.830Z,9.95
2023-03-08T03:49:52.625Z,11.13
2023-03-08T03:52:19.349Z,9.15
2023-03-08T03:54:46.176Z,10.40
2023-03-08T03:57:13.075Z,10.60
2023-03-08T03:59:39.851Z,10.95
2023-03-08T04:02:06.729Z,9.57
2023-03-08T04:04:33.560Z,11.15
2023-03-08T04:07:00.345Z,11.98
2023-03-08T04:09:27.223Z,9.77
2023-03-08T04:11:54.095Z,10.75
2023-03-08T04:14:21.877Z,11.40
2023-03-08T04:16:48.718Z,10.93
2023-03-08T04:19:15.497Z,10.90
2023-03-08T04:21:42.293Z,10.80
2023-03-08T04:24:09.116Z,10.40
2023-03-08T04:26:36.265Z,11.10
2023-03-08T04:29:06.090Z,9.88
2023-03-08T04:31:35.674Z,10.30
2023-03-08T04:34:03.672Z,11.25
2023-03-08T04:36:31.225Z,10.85
2023-03-08T04:38:58.252Z,10.15
2023-03-08T04:41:25.608Z,11.82
2023-03-08T04:43:54.444Z,11.52
2023-03-08T04:46:24.982Z,11.05
2023-03-08T04:48:55.910Z,11.27
2023-03-08T04:51:25.153Z,11.30
2023-03-08T04:53:52.457Z,11.38
2023-03-08T04:56:19.786Z,11.52
2023-03-08T04:58:47.388Z,11.45
2023-03-08T05:01:17.109Z,12.63
2023-03-08T05:03:45.242Z,12.23
2023-03-08T05:06:14.302Z,11.38
2023-03-08T05:08:41.535Z,11.57
2023-03-08T05:11:09.052Z,11.57
2023-03-08T05:13:38.530Z,11.93
2023-03-08T05:16:07.690Z,10.52
2023-03-08T05:18:34.968Z,11.65
2023-03-08T05:21:04.318Z,12.45
2023-03-08T05:23:31.838Z,11.60
2023-03-08T05:26:00.444Z,11.27
2023-03-08T05:28:30.062Z,11.77
2023-03-08T05:31:07.163Z,12.27
2023-03-08T05:33:34.914Z,11.23
2023-03-08T05:36:02.134Z,11.82
2023-03-08T05:38:29.425Z,12.82
2023-03-08T05:41:00.899Z,12.20
2023-03-08T05:43:27.974Z,10.88
2023-03-08T05:45:57.235Z,12.57
2023-03-08T05:48:24.809Z,11.13
2023-03-08T05:50:52.299Z,11.68
2023-03-08T05:53:19.362Z,11.93
2023-03-08T05:55:46.311Z,11.38
2023-03-08T05:58:13.353Z,11.18
2023-03-08T06:00:40.479Z,11.07
2023-03-08T06:03:07.399Z,11.02
2023-03-08T06:05:34.584Z,11.23
2023-03-08T06:08:01.404Z,10.70
2023-03-08T06:10:28.149Z,11.65
2023-03-08T06:12:54.952Z,10.65
2023-03-08T06:15:21.751Z,10.68
2023-03-08T06:17:48.654Z,10.75
2023-03-08T06:20:16.582Z,11.02
2023-03-08T06:22:43.755Z,10.43
2023-03-08T06:25:10.567Z,10.93
2023-03-08T06:27:37.523Z,11.27
2023-03-08T06:30:04.705Z,10.07
2023-03-08T06:32:31.574Z,10.63
2023-03-08T06:34:58.456Z,10.75
2023-03-08T06:37:25.236Z,10.88
2023-03-08T06:39:52.036Z,11.00
2023-03-08T06:42:22.249Z,11.60
2023-03-08T06:44:52.558Z,11.75
2023-03-08T06:47:19.333Z,10.00
2023-03-08T06:49:47.011Z,10.63
2023-03-08T06:52:13.845Z,11.95
2023-03-08T06:54:40.656Z,11.68
2023-03-08T06:57:07.426Z,13.02
2023-03-08T06:59:34.178Z,13.25
2023-03-08T07:02:00.974Z,12.13
2023-03-08T07:04:28.048Z,11.15
2023-03-08T07:07:07.898Z,11.32
2023-03-08T07:09:34.945Z,11.57
2023-03-08T07:12:01.755Z,13.20
2023-03-08T07:14:28.575Z,12.77
2023-03-08T07:16:55.518Z,13.52
2023-03-08T07:19:22.747Z,13.10
2023-03-08T07:21:49.549Z,13.77
2023-03-08T07:24:16.417Z,13.73
2023-03-08T07:26:43.358Z,12.88
2023-03-08T07:29:10.125Z,14.00
2023-03-08T07:31:36.939Z,12.90
2023-03-08T07:34:04.508Z,13.13
2023-03-08T07:36:32.425Z,12.82
2023-03-08T07:38:59.285Z,14.25
2023-03-08T07:41:30.479Z,13.57
2023-03-08T07:43:57.466Z,14.45
2023-03-08T07:46:24.463Z,13.63
2023-03-08T07:48:55.134Z,14.32
2023-03-08T07:51:22.351Z,14.27
2023-03-08T07:53:49.210Z,12.48
2023-03-08T07:56:16.018Z,11.50
2023-03-08T07:58:42.939Z,11.60
2023-03-08T08:01:15.379Z,10.77
2023-03-08T08:03:42.352Z,12.18
2023-03-08T08:06:09.696Z,12.30
2023-03-08T08:08:36.472Z,14.30
2023-03-08T08:11:09.609Z,12.88
2023-03-08T08:13:36.438Z,12.98
2023-03-08T08:16:03.574Z,32.97
2023-03-08T08:18:30.355Z,16.05
2023-03-08T08:21:04.706Z,17.77
2023-03-08T08:23:31.588Z,14.82
2023-03-08T08:25:58.688Z,14.90
2023-03-08T08:28:27.344Z,13.05
2023-03-08T08:31:03.526Z,12.35
2023-03-08T08:33:31.862Z,11.07
2023-03-08T08:35:59.576Z,11.82
2023-03-08T08:38:26.829Z,11.55
2023-03-08T08:40:53.902Z,11.38
2023-03-08T08:43:20.758Z,11.40
2023-03-08T08:45:49.247Z,11.15
2023-03-08T08:48:16.266Z,11.50
2023-03-08T08:50:43.387Z,11.25
2023-03-08T08:53:10.646Z,10.57
2023-03-08T08:55:38.936Z,11.15
2023-03-08T08:58:08.024Z,11.25
2023-03-08T09:00:35.254Z,12.02
2023-03-08T09:03:02.955Z,12.05
2023-03-08T09:05:30.517Z,13.25
2023-03-08T09:07:59.526Z,12.13
2023-03-08T09:10:28.271Z,12.43
2023-03-08T09:12:56.574Z,12.48
2023-03-08T09:15:24.916Z,12.32
2023-03-08T09:17:51.855Z,13.32
2023-03-08T09:20:21.421Z,11.80
2023-03-08T09:22:49.095Z,13.60
2023-03-08T09:25:15.978Z,13.85
2023-03-08T09:27:42.857Z,14.00
2023-03-08T09:30:14.482Z,14.40
2023-03-08T09:32:41.564Z,14.32
2023-03-08T09:35:08.468Z,17.38
2023-03-08T09:37:35.656Z,18.67
2023-03-08T09:40:09.665Z,15.40
2023-03-08T09:42:38.286Z,15.90
2023-03-08T09:45:18.334Z,15.23
2023-03-08T09:47:51.062Z,15.07
2023-03-08T09:50:50.140Z,15.18
2023-03-08T09:53:38.411Z,15.27
2023-03-08T09:56:14.838Z,15.48
2023-03-08T09:58:47.507Z,15.23
2023-03-08T10:01:52.169Z,15.75
2023-03-08T10:04:18.940Z,16.10
2023-03-08T10:06:51.823Z,15.65
2023-03-08T10:09:37.873Z,15.50
2023-03-08T10:12:38.438Z,15.68
2023-03-08T10:15:10.930Z,15.70
2023-03-08T10:17:52.544Z,17.13
2023-03-08T10:20:24.561Z,17.27
2023-03-08T10:25:31.168Z,16.05
2023-03-08T10:28:00.878Z,16.02
2023-03-08T10:30:41.351Z,16.00
2023-03-08T10:33:12.149Z,16.70
2023-03-08T10:36:03.751Z,16.77
2023-03-08T10:38:33.327Z,15.70
2023-03-08T10:41:20.333Z,20.75
2023-03-08T10:43:50.550Z,16.55
2023-03-08T10:46:23.697Z,19.20
2023-03-08T10:48:51.407Z,19.02
2023-03-08T10:51:22.348Z,19.02
2023-03-08T10:54:00.927Z,19.38
2023-03-08T10:56:33.016Z,17.67
2023-03-08T10:59:00.213Z,18.05
2023-03-08T11:01:54.184Z,17.85
2023-03-08T11:04:23.007Z,20.58
2023-03-08T11:06:50.055Z,20.15
2023-03-08T11:09:29.115Z,18.15
2023-03-08T11:12:00.244Z,17.88
2023-03-08T11:14:29.742Z,19.67
2023-03-08T11:17:11.607Z,19.20
2023-03-08T11:19:44.421Z,18.55
2023-03-08T11:22:21.119Z,17.52
2023-03-08T11:25:16.908Z,16.92
2023-03-08T11:28:08.795Z,17.65
2023-03-08T11:30:51.692Z,15.82
2023-03-08T11:33:37.178Z,16.65
2023-03-08T11:36:23.042Z,15.07
2023-03-08T11:39:19.972Z,15.48
2023-03-08T11:42:20.680Z,16.50
2023-03-08T11:45:17.890Z,15.68
2023-03-08T11:47:56.941Z,16.27
2023-03-08T11:50:36.098Z,15.40
2023-03-08T11:53:12.729Z,13.02
2023-03-08T11:56:00.650Z,13.73
2023-03-08T11:58:30.308Z,14.52
2023-03-08T12:01:05.202Z,12.07
2023-03-08T12:03:42.295Z,12.35
2023-03-08T12:06:26.447Z,12.60
2023-03-08T12:09:13.924Z,14.27
2023-03-08T12:11:45.173Z,14.20
2023-03-08T12:14:25.766Z,13.27
2023-03-08T12:17:12.772Z,14.10
2023-03-08T12:19:45.681Z,13.70
2023-03-08T12:22:25.105Z,15.68
2023-03-08T12:25:12.971Z,14.70
2023-03-08T12:27:46.866Z,15.23
2023-03-08T12:30:25.906Z,15.68
2023-03-08T12:32:56.734Z,15.23
2023-03-08T12:35:23.591Z,13.25
2023-03-08T12:38:05.828Z,12.85
2023-03-08T12:40:40.670Z,11.77
2023-03-08T12:43:27.769Z,12.10
2023-03-08T12:46:00.448Z,11.57
2023-03-08T12:48:28.752Z,10.07
2023-03-08T12:51:34.124Z,10.15
2023-03-08T12:54:04.128Z,9.75
2023-03-08T12:56:36.705Z,10.25
2023-03-08T12:59:23.939Z,9.75
2023-03-08T13:01:56.735Z,10.57
2023-03-08T13:04:42.103Z,9.05
2023-03-08T13:07:26.874Z,8.98
2023-03-08T13:10:01.533Z,10.45
2023-03-08T13:12:57.488Z,10.18
2023-03-08T13:15:26.407Z,9.88
2023-03-08T13:18:11.367Z,10.32
2023-03-08T13:20:42.019Z,8.23
2023-03-08T13:23:15.326Z,8.38
2023-03-08T13:25:59.484Z,9.00
2023-03-08T13:28:46.197Z,9.27
2023-03-08T13:31:36.108Z,8.63
2023-03-08T13:34:02.871Z,10.15
2023-03-08T13:36:32.585Z,7.50
2023-03-08T13:39:02.412Z,8.10
2023-03-08T13:41:40.959Z,7.90
2023-03-08T13:44:16.106Z,7.82
2023-03-08T13:46:43.446Z,8.13
2023-03-08T13:49:14.961Z,8.20
2023-03-08T13:51:44.240Z,8.23
2023-03-08T13:54:29.504Z,8.65
2023-03-08T13:57:00.012Z,9.63
2023-03-08T13:59:27.168Z,10.40
2023-03-08T14:01:55.010Z,10.20
2023-03-08T14:04:27.534Z,9.05
2023-03-08T14:06:57.246Z,9.02
2023-03-08T14:09:26.000Z,9.10
2023-03-08T14:12:04.554Z,8.55
2023-03-08T14:14:37.908Z,9.45
2023-03-08T14:17:05.188Z,8.77
2023-03-08T14:19:39.093Z,10.48
2023-03-08T14:22:14.617Z,10.27
2023-03-08T14:24:43.650Z,9.52
2023-03-08T14:27:16.784Z,15.57
2023-03-08T14:29:45.363Z,12.02
2023-03-08T14:32:12.731Z,48.17
2023-03-08T14:34:41.004Z,16.45
2023-03-08T14:37:19.716Z,16.10
2023-03-08T14:39:48.298Z,11.25
2023-03-08T14:42:26.777Z,10.90
2023-03-08T14:44:57.770Z,9.50
2023-03-08T14:47:38.550Z,9.73
2023-03-08T14:50:27.385Z,11.25
2023-03-08T14:52:56.389Z,10.52
2023-03-08T14:55:33.682Z,9.45
2023-03-08T14:58:09.752Z,9.02
2023-03-08T15:00:37.725Z,8.73
2023-03-08T15:03:04.650Z,9.88
2023-03-08T15:05:33.214Z,10.02
2023-03-08T15:08:00.634Z,9.70
2023-03-08T15:10:38.687Z,10.25
2023-03-08T15:13:08.205Z,10.40
2023-03-08T15:15:35.069Z,10.10
2023-03-08T15:18:02.088Z,10.68
2023-03-08T15:20:29.135Z,9.38
2023-03-08T15:23:01.683Z,10.23
2023-03-08T15:25:34.331Z,10.07
2023-03-08T15:28:02.050Z,8.70
2023-03-08T15:30:30.196Z,9.70
2023-03-08T15:33:00.307Z,8.77
2023-03-08T15:35:27.448Z,8.63
2023-03-08T15:37:55.564Z,9.40
2023-03-08T15:40:29.435Z,9.65
2023-03-08T15:42:58.683Z,9.60
2023-03-08T15:45:28.806Z,8.88
2023-03-08T15:48:01.329Z,10.32
2023-03-08T15:50:28.823Z,9.55
2023-03-08T15:52:56.134Z,9.90
2023-03-08T15:55:24.890Z,9.77
2023-03-08T15:57:52.188Z,9.45
2023-03-08T16:00:20.974Z,9.85
2023-03-08T16:02:49.271Z,10.23
2023-03-08T16:05:16.448Z,10.45
2023-03-08T16:07:43.463Z,11.05
2023-03-08T16:10:13.226Z,12.80
2023-03-08T16:12:41.051Z,11.65
2023-03-08T16:15:08.437Z,11.15
2023-03-08T16:17:35.568Z,10.18
2023-03-08T16:20:05.935Z,11.70
2023-03-08T16:22:34.140Z,11.00
2023-03-08T16:25:01.039Z,11.05
2023-03-08T16:27:30.643Z,10.63
2023-03-08T16:29:57.540Z,11.10
2023-03-08T16:32:24.421Z,11.68
2023-03-08T16:34:51.331Z,11.68
2023-03-08T16:37:19.298Z,12.88
2023-03-08T16:39:48.873Z,11.35
2023-03-08T16:42:15.817Z,11.98
2023-03-08T16:44:49.310Z,11.38
2023-03-08T16:47:16.457Z,13.93
2023-03-08T16:49:43.242Z,13.80
2023-03-08T16:52:10.072Z,14.25
2023-03-08T16:54:37.119Z,15.70
2023-03-08T16:57:18.259Z,16.95
2023-03-08T16:59:46.720Z,16.75
2023-03-08T17:02:15.855Z,14.52
2023-03-08T17:04:42.808Z,12.23
2023-03-08T17:07:11.013Z,11.20
2023-03-08T17:09:38.698Z,11.93
2023-03-08T17:12:05.893Z,18.42
2023-03-08T17:14:34.695Z,13.10
2023-03-08T17:17:02.055Z,13.27
2023-03-08T17:19:28.928Z,18.00
2023-03-08T17:21:55.974Z,13.85
2023-03-08T17:24:23.299Z,13.73
2023-03-08T17:26:52.946Z,15.82
2023-03-08T17:29:21.033Z,14.07
2023-03-08T17:31:48.042Z,13.88
2023-03-08T17:34:15.718Z,15.02
2023-03-08T17:36:44.426Z,14.98
2023-03-08T17:39:11.367Z,15.52
2023-03-08T17:41:38.719Z,13.77
2023-03-08T17:44:05.766Z,14.25
2023-03-08T17:46:32.803Z,14.23
2023-03-08T17:48:59.676Z,13.65
2023-03-08T17:51:29.719Z,15.05
2023-03-08T17:54:01.421Z,15.82
2023-03-08T17:56:31.259Z,16.55
2023-03-08T17:59:00.537Z,16.40
2023-03-08T18:01:32.791Z,18.42
2023-03-08T18:04:00.395Z,18.10
2023-03-08T18:06:42.038Z,21.45
2023-03-08T18:09:16.608Z,25.13
2023-03-08T18:11:43.600Z,20.55
2023-03-08T18:14:13.036Z,20.67
2023-03-08T18:16:40.403Z,24.33
2023-03-08T18:19:07.665Z,21.52
2023-03-08T18:21:36.228Z,70.97
2023-03-08T18:24:05.051Z,26.60
2023-03-08T18:26:31.989Z,37.65
2023-03-08T18:28:58.973Z,28.83
2023-03-08T18:31:26.778Z,23.88
2023-03-08T18:33:55.130Z,23.63
2023-03-08T18:36:22.943Z,24.75
2023-03-08T18:38:49.798Z,40.65
2023-03-08T18:41:21.462Z,24.90
2023-03-08T18:43:48.416Z,30.38
2023-03-08T18:46:15.393Z,28.98
2023-03-08T18:48:43.104Z,27.65
2023-03-08T18:51:10.092Z,24.77
2023-03-08T18:53:37.871Z,26.85
2023-03-08T18:56:04.858Z,28.85
2023-03-08T18:58:32.488Z,21.90
2023-03-08T19:01:02.132Z,21.55
2023-03-08T19:03:30.313Z,20.30
2023-03-08T19:06:00.941Z,21.55
2023-03-08T19:08:28.511Z,21.83
2023-03-08T19:10:55.329Z,22.50
2023-03-08T19:13:22.153Z,22.75
2023-03-08T19:15:48.967Z,30.17
2023-03-08T19:18:15.913Z,23.05
2023-03-08T19:20:42.935Z,22.73
2023-03-08T19:23:10.641Z,20.38
2023-03-08T19:25:58.749Z,19.63
2023-03-08T19:28:25.807Z,19.60
2023-03-08T19:30:52.646Z,19.65
2023-03-08T19:33:30.345Z,20.33
2023-03-08T19:35:58.464Z,21.38
2023-03-08T19:38:25.429Z,20.92
2023-03-08T19:40:52.312Z,21.42
2023-03-08T19:43:19.060Z,22.17
2023-03-08T19:45:50.035Z,23.63
2023-03-08T19:48:16.905Z,24.85
2023-03-08T19:50:46.649Z,23.67
2023-03-08T19:53:13.568Z,26.10
2023-03-08T19:55:50.204Z,21.60
2023-03-08T19:58:18.006Z,19.88
2023-03-08T20:00:45.090Z,20.95
2023-03-08T20:03:13.545Z,20.77
2023-03-08T20:05:42.031Z,20.13
2023-03-08T20:08:08.913Z,21.52
2023-03-08T20:10:36.030Z,19.38
2023-03-08T20:13:03.406Z,19.17
2023-03-08T20:15:30.522Z,23.00
2023-03-08T20:17:57.395Z,21.08
2023-03-08T20:20:24.565Z,18.73
2023-03-08T20:22:51.299Z,18.98
2023-03-08T20:25:18.411Z,21.45
2023-03-08T20:27:45.192Z,19.45
2023-03-08T20:30:13.069Z,19.83
2023-03-08T20:32:39.859Z,19.88
2023-03-08T20:35:07.295Z,18.00
2023-03-08T20:37:34.224Z,19.65
2023-03-08T20:40:04.263Z,19.75
2023-03-08T20:42:31.403Z,22.52
2023-03-08T20:44:58.158Z,20.48
2023-03-08T20:47:24.975Z,21.80
2023-03-08T20:49:51.822Z,21.75
2023-03-08T20:52:18.829Z,22.02
2023-03-08T20:54:45.597Z,25.35
2023-03-08T20:57:12.401Z,23.40
2023-03-08T20:59:39.254Z,25.13
2023-03-08T21:02:06.144Z,25.40
2023-03-08T21:04:33.167Z,25.58
2023-03-08T21:07:00.642Z,23.90
2023-03-08T21:09:27.620Z,22.60
2023-03-08T21:11:54.454Z,22.00
2023-03-08T21:14:21.257Z,20.80
2023-03-08T21:16:48.139Z,20.40
2023-03-08T21:19:15.122Z,18.10
2023-03-08T21:21:45.423Z,18.52
2023-03-08T21:24:17.259Z,18.52
2023-03-08T21:26:44.776Z,18.98
2023-03-08T21:29:17.521Z,18.83
2023-03-08T21:31:50.564Z,18.02
2023-03-08T21:34:19.103Z,17.33
2023-03-08T21:36:46.260Z,18.35
2023-03-08T21:39:13.404Z,17.60
2023-03-08T21:41:43.141Z,18.25
2023-03-08T21:44:13.913Z,16.23
2023-03-08T21:46:41.512Z,15.52
2023-03-08T21:49:15.216Z,17.50
2023-03-08T21:51:42.095Z,17.98
2023-03-08T21:54:08.926Z,18.17
2023-03-08T21:56:36.064Z,19.10
2023-03-08T21:59:03.662Z,19.38
2023-03-08T22:01:31.612Z,18.65
2023-03-08T22:04:00.137Z,19.15
2023-03-08T22:06:27.946Z,19.63
2023-03-08T22:08:54.858Z,17.17
2023-03-08T22:11:23.036Z,16.80
2023-03-08T22:14:01.469Z,19.48
2023-03-08T22:16:30.061Z,19.17
2023-03-08T22:18:59.168Z,19.38
2023-03-08T22:21:26.875Z,18.38
2023-03-08T22:23:55.445Z,17.92
2023-03-08T22:26:23.336Z,19.90
2023-03-08T22:28:50.320Z,20.58
2023-03-08T22:31:19.812Z,19.50
2023-03-08T22:33:47.350Z,20.02
2023-03-08T22:36:15.788Z,17.27
2023-03-08T22:38:43.002Z,17.40
2023-03-08T22:41:16.345Z,17.10
2023-03-08T22:43:43.583Z,16.67
2023-03-08T22:46:13.576Z,15.57
2023-03-08T22:48:40.580Z,15.77
2023-03-08T22:51:11.175Z,16.30
2023-03-08T22:53:39.467Z,16.33
2023-03-08T22:56:07.311Z,15.18
2023-03-08T22:58:34.555Z,15.82
2023-03-08T23:01:01.430Z,14.95
2023-03-08T23:03:28.242Z,14.52
2023-03-08T23:05:56.232Z,15.57
2023-03-08T23:08:24.343Z,14.18
2023-03-08T23:10:51.372Z,15.45
2023-03-08T23:13:32.694Z,15.02
2023-03-08T23:18:27.502Z,13.70
2023-03-08T23:20:54.618Z,14.32
2023-03-08T23:23:25.091Z,14.82
2023-03-08T23:25:52.699Z,15.30
2023-03-08T23:28:20.150Z,14.02
2023-03-08T23:30:47.082Z,13.25
2023-03-08T23:33:13.953Z,13.32
2023-03-08T23:35:40.948Z,13.23
2023-03-08T23:38:08.102Z,12.88
2023-03-08T23:40:39.431Z,12.52
2023-03-08T23:43:07.362Z,12.52
2023-03-08T23:45:34.239Z,13.73
2023-03-08T23:48:03.260Z,13.15
2023-03-08T23:50:30.418Z,13.07
2023-03-08T23:52:57.269Z,12.38
2023-03-08T23:55:24.048Z,12.93
2023-03-08T23:57:50.854Z,11.85
